首页
METAR-TAF:

METAR-TAF

机场 :

内塔吉·苏巴斯·钱德拉·鲍斯国际机场

加尔各答, 印度

纬度: 22-39N, 经度: 088-27E, 海拔: 4米

当前天气观测

该预报发布于32分钟前的10:30 UTC
风速3节,风向西
温度 32°C
湿度 38%
气压 1010 hPa
能見度: 4000

METAR: VECC 151030Z 27003KT 4000 HZ NSC 32/16 Q1010 NOSIG

时间: 16:32 (11:02 UTC)

预报

该预报发布于6小时和2分钟前的05:00 UTC
预报有效从15日的 06点(UTC)到 16日的 12点(UTC)
风速5节,风向西转西南
能見度: 2800
成为
从 15日的 07点(UTC)到 15日的 09点(UTC)
能見度: 3300
成为
从 15日的 14点(UTC)到 15日的 16点(UTC)
风速节,风向
能見度: 2400
轻雾
成为
从 15日的 23点(UTC)到 16日的 01点(UTC)
能見度: 1400
轻雾
成为
从 16日的 02点(UTC)到 16日的 04点(UTC)
风速5节,风向西转西南
能見度: 2400
轻雾
成为
从 16日的 05点(UTC)到 16日的 07点(UTC)
能見度: 3200

TAF: VECC 150500Z 1506/1612 24005KT 2800 HZ NSC BECMG 1507/1509 3300 HZ BECMG 1514/1516 00000KT 2400 BR BECMG 1523/1601 1400 BR BECMG 1602/1604 24005KT 2400 BR BECMG 1605/1607 3200 HZ

超过4000个机场的气象观测和天气预报(METAR&TAF报告)。

可查询的气象台以黄色和红色小点在地图上表示。

将鼠标移到小点上方,可查看气象台名称。

然后点击查看天气观测和预报。

如需切换地图:点击带黑十字的绿色按钮放大地图;点击带横线的绿色按钮缩小地图;或者点击绿色箭头查看邻近地区的地图。


METAR-TAF: